< Typhoon 201012 2010 Season Typhoon 201014 >
Typhoon 201013 (MEGI)
General InformationTrack Information on Google MapsDetailed Wind InformationAccess Analytics MapList of All Images || NewsDisaster Info.WeblogTrackbackTyphoon FrontTwiphoonTyphoon Now!Typhoon ImaginationResourceGoogle EarthGE AnimationAtom FeedGeoJSON
Detalied Best Track (Time Zone = UTC)
Year Month Day Hour Lat. Long. Pressure (hPa) Wind (kt) Class Image Chart
2010 10 13 00 11.9 141.4 1006 0 2 Image Chart
2010 10 13 06 12.0 141.2 1004 0 2 Image Chart
2010 10 13 12 12.0 140.9 1002 35 3 Image Chart
2010 10 13 18 12.1 140.6 1000 35 3 Image Chart
2010 10 14 00 12.3 139.8 996 40 3 Image Chart
2010 10 14 06 12.8 139.1 990 45 3 Image Chart
2010 10 14 12 13.1 138.6 985 50 4 Image Chart
2010 10 14 18 13.6 138.1 980 55 4 Image Chart
2010 10 15 00 14.5 137.4 975 60 4 Image Chart
2010 10 15 06 14.9 136.6 970 65 5 Image Chart
2010 10 15 12 15.7 135.5 965 70 5 Image Chart
2010 10 15 18 16.7 134.3 960 75 5 Image Chart
2010 10 16 00 17.6 133.0 960 75 5 Image Chart
2010 10 16 06 18.1 131.6 955 80 5 Image Chart
2010 10 16 12 18.3 130.3 945 85 5 Image Chart
2010 10 16 18 18.7 128.9 925 100 5 Image Chart
2010 10 17 00 18.7 127.5 915 105 5 Image Chart
2010 10 17 06 18.5 126.2 905 110 5 Image Chart
2010 10 17 12 18.1 125.1 895 120 5 Image Chart
2010 10 17 18 17.6 124.2 885 125 5 Image Chart
2010 10 18 00 17.5 123.3 885 125 5 Image Chart
2010 10 18 06 17.1 121.9 910 105 5 Image Chart
2010 10 18 12 16.8 120.8 940 90 5 Image Chart
2010 10 18 18 16.5 119.7 950 85 5 Image Chart
2010 10 19 00 16.5 119.2 950 80 5 Image Chart
2010 10 19 06 16.6 118.6 950 80 5 Image Chart
2010 10 19 12 16.6 117.9 950 80 5 Image Chart
2010 10 19 18 16.9 117.6 950 80 5 Image Chart
2010 10 20 00 17.3 117.2 950 80 5 Image Chart
2010 10 20 06 17.8 117.3 950 80 5 Image Chart
2010 10 20 12 18.4 117.2 945 85 5 Image Chart
2010 10 20 18 18.9 117.4 945 85 5 Image Chart
2010 10 21 00 19.5 117.5 940 90 5 Image Chart
2010 10 21 06 19.9 117.6 935 95 5 Image Chart
2010 10 21 12 20.2 117.9 935 95 5 Image Chart
2010 10 21 18 20.5 118.0 945 85 5 Image Chart
2010 10 22 00 20.9 118.2 950 80 5 Image Chart
2010 10 22 06 21.5 118.2 955 75 5 Image Chart
2010 10 22 12 22.1 118.2 965 70 5 Image Chart
2010 10 22 18 22.7 118.2 975 60 4 Image Chart
2010 10 23 00 23.4 118.0 985 50 4 Image Chart
2010 10 23 06 24.2 117.8 992 40 3 Image Chart
2010 10 23 12 24.5 117.8 1000 35 3 Image Chart
2010 10 23 18 24.9 118.0 1004 0 2 Image Chart
2010 10 24 00 25.3 118.1 1006 0 2 Image Chart
2010 10 24 06 26.1 118.3 1006 0 2 Image Chart
Japan Meteorological Agency Best Track Data | Correction Date : 2010-12-10
< Typhoon 201012 2010 Season Typhoon 201014 >

Help